Terminal Aerodrome Forecast
Issued by NWS Cleveland, OH

Home | Current Version | Previous Version | Graphics & Text | Print | Product List | Glossary On
Versions: 1 2 3 4 5 6 7 8 9 10 11 12 13 14 15 16 17 18 19 20 21 22 23
000
FTUS41 KCLE 081723
TAFTOL
TAF
KTOL 081723Z 0818/0918 29010KT P6SM SCT045 BKN100
      TEMPO 0820/0822 BKN045
     FM082200 30008KT P6SM OVC045
      TEMPO 0822/0902 -SHSN BKN025
     FM090200 30006KT P6SM -SHSN OVC025
     FM090800 27008KT 6SM -SHSN OVC015=

USA.gov is the U.S. government's official web portal to all federal, state and local government web resources and services.